createdAt,value
2023-03-23T16:00:20.008Z,60.65
2023-03-23T16:04:22.357Z,60.80
2023-03-23T16:08:24.421Z,61.29
2023-03-23T16:12:26.406Z,61.58
2023-03-23T16:16:33.994Z,62.52
2023-03-23T16:20:36.493Z,63.25
2023-03-23T16:24:38.569Z,63.13
2023-03-23T16:28:41.209Z,63.52
2023-03-23T16:32:43.713Z,63.91
2023-03-23T16:36:45.807Z,64.23
2023-03-23T16:40:47.794Z,64.81
2023-03-23T16:44:50.896Z,65.82
2023-03-23T16:48:52.920Z,66.76
2023-03-23T16:52:55.462Z,67.13
2023-03-23T16:56:57.509Z,67.29
2023-03-23T17:01:01.029Z,68.11
2023-03-23T17:05:03.674Z,69.10
2023-03-23T17:09:06.410Z,69.72
2023-03-23T17:13:08.963Z,70.16
2023-03-23T17:17:10.946Z,70.88
2023-03-23T17:21:12.964Z,72.09
2023-03-23T17:25:15.427Z,73.00
2023-03-23T17:29:17.705Z,74.07
2023-03-23T17:33:19.855Z,75.27
2023-03-23T17:37:22.341Z,75.81
2023-03-23T17:41:24.371Z,76.75
2023-03-23T17:45:26.608Z,78.23
2023-03-23T17:49:30.292Z,79.33
2023-03-23T17:53:34.964Z,80.64
2023-03-23T17:57:36.951Z,81.82
2023-03-23T18:01:38.949Z,82.33
2023-03-23T18:05:41.070Z,83.55
2023-03-23T18:09:45.288Z,84.66
2023-03-23T18:13:47.927Z,84.92
2023-03-23T18:17:51.084Z,83.77
2023-03-23T18:21:53.130Z,83.59
2023-03-23T18:25:55.728Z,83.59
2023-03-23T18:29:58.378Z,84.13
2023-03-23T18:34:00.432Z,83.37
2023-03-23T18:38:02.508Z,83.52
2023-03-23T18:42:05.892Z,83.34
2023-03-23T18:46:08.375Z,82.49
2023-03-23T18:50:11.178Z,82.22
2023-03-23T18:54:13.433Z,81.83
2023-03-23T18:58:16.628Z,80.80
2023-03-23T19:02:20.392Z,79.37
2023-03-23T19:06:25.219Z,77.79
2023-03-23T19:10:27.916Z,77.37
2023-03-23T19:14:29.914Z,77.38
2023-03-23T19:18:31.982Z,77.73
2023-03-23T19:22:33.999Z,78.90
2023-03-23T19:26:44.277Z,80.90
2023-03-23T19:30:48.753Z,82.24
2023-03-23T19:34:51.415Z,83.96
2023-03-23T19:38:54.519Z,84.92
2023-03-23T19:42:57.460Z,85.91
2023-03-23T19:46:59.637Z,86.90
2023-03-23T19:51:02.397Z,87.55
2023-03-23T19:55:04.651Z,88.14
2023-03-23T19:59:10.549Z,88.33
2023-03-23T20:03:13.002Z,89.09
2023-03-23T20:07:15.470Z,90.03
2023-03-23T20:11:19.164Z,91.05
2023-03-23T20:15:21.372Z,92.36
2023-03-23T20:19:23.600Z,92.97
2023-03-23T20:23:25.679Z,93.34
2023-03-23T20:27:27.913Z,92.62
2023-03-23T20:31:35.886Z,92.20
2023-03-23T20:35:38.715Z,92.05
2023-03-23T20:39:41.632Z,91.98
2023-03-23T20:43:44.983Z,91.53
2023-03-23T20:47:47.112Z,91.70
2023-03-23T20:51:49.816Z,92.57
2023-03-23T20:55:52.151Z,92.90
2023-03-23T20:59:55.649Z,93.36
2023-03-23T21:04:00.185Z,93.92
2023-03-23T21:08:02.326Z,96.92
2023-03-23T21:12:04.461Z,94.84
2023-03-23T21:16:07.510Z,93.64
2023-03-23T21:20:10.976Z,93.88
2023-03-23T21:24:13.070Z,94.60
2023-03-23T21:28:15.364Z,94.87
2023-03-23T21:32:17.348Z,95.60
2023-03-23T21:36:19.401Z,96.35
2023-03-23T21:40:21.525Z,96.44
2023-03-23T21:44:23.685Z,96.80
2023-03-23T21:48:29.515Z,97.30
2023-03-23T21:52:32.620Z,97.54
2023-03-23T21:56:34.651Z,97.21
2023-03-23T22:00:36.831Z,97.45
2023-03-23T22:04:38.815Z,97.52
2023-03-23T22:08:43.352Z,97.97
2023-03-23T22:12:45.613Z,98.07
2023-03-23T22:16:47.826Z,98.40
2023-03-23T22:20:49.819Z,98.60
2023-03-23T22:24:51.982Z,98.51
2023-03-23T22:28:54.577Z,98.25
2023-03-23T22:32:57.654Z,98.50
2023-03-23T22:36:59.730Z,97.78
2023-03-23T22:41:04.491Z,96.31
2023-03-23T22:45:10.252Z,94.21
2023-03-23T22:49:12.676Z,91.12
2023-03-23T22:53:16.228Z,89.03
2023-03-23T22:57:18.404Z,87.11
2023-03-23T23:01:22.200Z,86.81
2023-03-23T23:05:24.316Z,87.07
2023-03-23T23:09:27.362Z,89.96
2023-03-23T23:13:31.236Z,91.32
2023-03-23T23:17:35.005Z,94.43
2023-03-23T23:21:37.169Z,91.27
2023-03-23T23:25:39.328Z,91.62
2023-03-23T23:29:41.418Z,92.89
2023-03-23T23:33:43.403Z,94.53
2023-03-23T23:37:46.074Z,95.55
2023-03-23T23:41:48.083Z,96.90
2023-03-23T23:45:50.487Z,98.69
2023-03-23T23:49:52.585Z,100.00
2023-03-23T23:53:58.916Z,100.00
2023-03-23T23:58:01.369Z,100.00
